Friday, January 18, 2019, 3:08 AM EST
Back to Local

KPVD, Providence Green State Airport

Location: Warwick, RI, United States Lat: 41.733
Local Time: 3:08 AM EST ( 8:08 GMT) Lon: -71.433
Time Zone: US/Eastern Elev: 55 ft

Show me the last for .
Show Coded

Time T Td Feel RH Dir Speed Gust Alt SLP Vis Weather Sky Remarks
2019-01-18 02:51 27 17 22 65 10° 5 - 30.24 30.24 10 BKN055 OVC070 None
2019-01-18 01:51 27 17 19 65 100° 8 - 30.25 30.25 10 BKN055 OVC080 None
2019-01-18 00:51 27 15 20 60 90° 6 - 30.27 30.27 10 BKN100 OVC110 6-hr Min Temp (1am): 26.1°F
6-hr Max Temp (1am): 28.0°F
2019-01-17 23:51 27 13 19 54 100° 7 - 30.29 30.29 10 SCT120 OVC130 24-hr Min Temp (12am): 19.9°F
24-hr Max Temp (12am): 30.9°F
2019-01-17 22:51 27 14 19 57 120° 8 - 30.32 30.32 10 SCT120 OVC140 None
2019-01-17 21:51 27 15 20 60 100° 6 - 30.32 30.32 10 FEW120 OVC130 None
2019-01-17 20:51 27 7 22 42 120° 5 - 30.33 30.32 10 BKN110 OVC150 None
2019-01-17 19:51 27 9 20 45 140° 6 - 30.34 30.34 10 FEW120 BKN130 OVC160 None
2019-01-17 18:51 27 9 23 45 180° 3 - 30.35 30.35 10 BKN160 OVC250 6-hr Min Temp (7pm): 26.1°F
6-hr Max Temp (7pm): 30.9°F
2019-01-17 17:51 26 3 22 36 150° 3 - 30.33 30.33 10 FEW140 BKN160 OVC250 None
2019-01-17 16:51 26 0 21 31 140° 5 - 30.34 30.34 10 BKN250 None
2019-01-17 15:51 28 -1 22 27 110° 6 - 30.34 30.34 10 BKN250 None
2019-01-17 14:51 29 -1 22 26 90° 7 - 30.34 30.34 10 BKN250 None
2019-01-17 13:51 29 -3 25 24 Variable 3 - 30.35 30.35 10 BKN250 None
2019-01-17 12:51 28 -4 22 24 10° 6 - 30.36 30.36 10 BKN250 6-hr Min Temp (1pm): 19.9°F
6-hr Max Temp (1pm): 28.9°F
2019-01-17 11:51 27 -2 22 27 30° 5 - 30.39 30.39 10 BKN250 None
2019-01-17 10:51 25 -2 19 30 360° 5 - 30.41 30.41 10 FEW150 SCT250 None
2019-01-17 09:51 24 -1 16 32 350° 7 - 30.41 30.41 10 FEW150 SCT250 None
2019-01-17 08:51 22 2 10 41 10° 12 - 30.40 30.39 10 FEW150 SCT250 None
2019-01-17 07:51 21 2 11 42 350° 9 - 30.37 30.37 10 FEW150 BKN250 None
2019-01-17 06:51 22 -1 13 35 330° 8 - 30.34 30.34 10 SCT140 BKN250 6-hr Min Temp (7am): 21.9°F
6-hr Max Temp (7am): 28.9°F
2019-01-17 05:51 23 0 12 35 340° 10 - 30.30 30.30 10 FEW150 SCT250 None
2019-01-17 04:51 24 3 14 39 340° 10 - 30.29 30.29 10 CLR None
2019-01-17 03:51 26 10 18 50 330° 7 - 30.27 30.27 10 CLR None

Support USWX by starting your Amazon purchase here.